Tiempo atmosférico en la estación meteorológica de Izaña, Santa Cruz de Tenerife (2371 m.)



Fecha
DESCASC
Temp. máxima en grados centígrados (hora)
DESCASC
Temp. mínima en grados centígrados (hora)
DESCASC
Temp. media en grados centígrados
DESCASC
Racha de viento máxima en m/sg (hora)
DESCASC
Velocidad máxima media en intervalos de 10 minutos(hora)
DESCASC
Precipitaciones diarias en mm
DESCASC
Precipitaciones de 00:00 a 06:00 en mm
DESCASC
Precipitaciones de 06:00 a 12:00 en mm
DESCASC
Precipitaciones de 12:00 a 18:00 en mm
DESCASC
Precipitaciones de 18:00 a 24:00 en mm
DESCASC
14-02-2019 9.9 (14:50) 3.3 (22:50) 6.6 21.39 (17:10) 17.22 (18:10) 0 0 0 0 0
13-02-2019 12.2 (16:40) 5.7 (21:10) 8.9 12.78 (15:50) 9.72 (22:30) 0 0 0 0 0
12-02-2019 13.3 (13:10) 5.4 (07:20) 9.4 13.33 (15:00) 5.28 (01:00) 0 0 0 0 0
11-02-2019 10.8 (14:50) 3.6 (07:40) 7.2 17.78 (00:10) 14.72 (00:10) 0 0 0 0 0
10-02-2019 10.2 (15:00) 1.1 (00:00) 5.6 18.89 (22:30) 15.56 (22:10) 0 0 0 0 0
09-02-2019 11.9 (13:30) 4 (00:00) 7.9 10.56 (22:30) 8.61 (22:40) 0 0 0 0 0
08-02-2019 10.3 (14:50) 4.3 (00:00) 7.3 7.78 (14:50) 6.67 (06:50) 0 0 0 0 0
07-02-2019 11.2 (13:20) 3.9 (00:00) 7.5 7.78 (00:20) 7.22 (00:20) 0 0 0 0 0
06-02-2019 9.4 (14:30) 1.5 (03:20) 5.4 12.5 (13:00) 11.11 (02:20) 0 0 0 0 0
05-02-2019 7.8 (13:50) 0.8 (03:50) 4.3 16.94 (01:20) 14.72 (01:20) 0 0 0 0 0
04-02-2019 9.9 (12:00) 1.5 (00:00) 5.7 16.11 (23:40) 14.44 (23:00) 0 0 0 0 0
03-02-2019 9.1 (11:50) 3.6 (00:00) 6.4 13.33 (19:00) 10.28 (19:10) 0 0 0 0 0
02-02-2019 8.3 (14:20) -0.5 (-00:0) 3.9 14.17 (00:50) 12.5 (01:00) 0.2 0.2 0 0 0
01-02-2019 7.5 (12:20) 1.3 (00:00) 4.4 21.67 (14:40) 19.17 (14:30) 0 0 0 0 0
31-01-2019 12.9 (16:30) 3.6 (00:00) 8.2 11.67 (07:00) 9.72 (07:10) 0 0 0 0 0
30-01-2019 10.4 (16:00) 2.7 (00:00) 6.5 14.44 (12:00) 11.67 (10:50) 0 0 0 0 0
29-01-2019 13.2 (12:20) 5.7 (00:00) 9.4 11.11 (22:40) 9.17 (22:40) 0 0 0 0 0
28-01-2019 13.7 (13:10) 4.4 (00:00) 9 10.56 (00:10) 8.61 (00:20) 0 0 0 0 0
27-01-2019 9.8 (12:30) 2.8 (00:00) 6.3 15.28 (16:40) 13.61 (16:50) 0 0 0 0 0
26-01-2019 9.3 (12:20) 1.8 (00:00) 5.6 11.11 (15:30) 8.33 (15:40) 0 0 0 0 0
25-01-2019 9.4 (15:20) 2 (00:00) 5.7 7.78 (00:10) 5.28 (00:40) 0 0 0 0 0
24-01-2019 9 (13:50) 2.3 (00:00) 5.6 10.56 (11:40) 6.39 (00:40) 0 0 0 0 0
23-01-2019 10.9 (15:40) 1.5 (00:00) 6.2 12.5 (03:30) 10 (03:10) 0 0 0 0 0
22-01-2019 6.6 (12:10) -2.9 (-00:0) 1.8 14.72 (14:30) 10.28 (13:50) 0 0 0 0 0
21-01-2019 5 (13:30) -2.5 (-00:0) 1.3 15.83 (07:10) 13.89 (07:10) 0 0 0 0 0
20-01-2019 7.2 (13:10) 0.9 (00:00) 4 14.72 (23:10) 13.33 (23:10) 0 0 0 0 0
19-01-2019 8.3 (14:10) 1.8 (00:00) 5.1 12.5 (07:10) 10.83 (07:50) 0 0 0 0 0

Gráficas

Temp. máximas Temp. mínimas Temp. medias Precipitaciones Rachas de viento máximas Velocidades máximas media en intervalos de 10 minutos

Datos horarios

Fecha y hora oficial Temperatura (ºC) Velocidad del viento (km/h) Dirección del viento Racha (km/h) Dirección de racha Precipitación (mm) Presión (hPa) Tendencia (hPa) Humedad (%)
2019-02-17 23:00:00 0.4 22 Noroeste 35 Noroeste 0 769.8 0.7 50
2019-02-17 22:00:00 1.3 23 Noroeste 30 Noroeste 0 769.7 0.9 36
2019-02-17 21:00:00 0.6 31 Noroeste 40 Noroeste 0 769.3 0.6 70
2019-02-17 20:00:00 1.1 21 Noroeste 28 Noroeste 0 769.1 0.6 43
2019-02-17 19:00:00 1.1 17 Noroeste 19 Noroeste 0 768.8 0 63
2019-02-17 18:00:00 1.2 16 Noroeste 26 Norte 0 768.7 -0.4 96
2019-02-17 17:00:00 3.8 21 Noroeste 29 Noroeste 0 768.5 -1.1 80
2019-02-17 16:00:00 6.5 4 Oeste 17 Norte 0 768.8 -1.3 55
2019-02-17 15:00:00 4.2 17 Noroeste 30 Norte 0 769.1 -1.4 82
2019-02-17 14:00:00 5.4 10 Norte 18 Noroeste 0 769.6 -1.1 77
2019-02-17 13:00:00 6 8 Norte 21 Norte 0 770.1 -0.1 70
2019-02-17 12:00:00 6.7 3 Sur 12 Noroeste 0 770.5 0.6 54
2019-02-17 11:00:00 4.5 6 Nordeste 17 Norte 0 770.7 1.1 33
2019-02-17 10:00:00 4.5 7 Norte 14 Norte 0 770.2 1.1 40
2019-02-17 09:00:00 3.4 11 Norte 15 Noroeste 0 769.9 0.8 24
2019-02-17 08:00:00 1.2 12 Noroeste 17 Norte 0 769.6 0.7 30
2019-02-17 07:00:00 -0.2 7 Nordeste 12 Este 0 769.1 0.1 45
2019-02-17 06:00:00 -0.4 8 Este 14 Este 0 769.1 0.1 47
2019-02-17 05:00:00 0.6 8 Este 12 Este 0 768.9 -0.5 38
2019-02-17 04:00:00 2.1 6 Este 14 Norte 0 769 -0.5 32
2019-02-17 03:00:00 4 8 Norte 15 Norte 0 769 -0.6 16
2019-02-17 02:00:00 3.9 9 Norte 18 Nordeste 0 769.4 -0.2 17
2019-02-17 01:00:00 3.7 12 Nordeste 22 Este 0 769.5 0 17
2019-02-17 00:00:00 -0.2 15 Este 22 Este 0 769.6 0.6 42
2019-02-16 23:00:00 -1.6 13 Este 22 Este 0 769.6 1.3 75
2019-02-16 22:00:00 -1.4 15 Este 21 Nordeste 0 769.5 1.7 76
2019-02-16 21:00:00 -0.3 11 Norte 26 Nordeste 0 769 1.6 51
2019-02-16 20:00:00 -0.2 22 Norte 35 Norte 0 768.3 1.5 61
2019-02-16 19:00:00 0.6 24 Norte 36 Norte 0 767.8 0.9 54
2019-02-16 18:00:00 1.8 26 Norte 44 Noroeste 0 767.4 1.5 60
2019-02-16 17:00:00 2.2 39 Norte 48 Norte 0 766.8 0.8 71
2019-02-16 16:00:00 1.4 36 Norte 63 Norte 0 766.9 0.6 100
2019-02-16 15:00:00 1.4 55 Norte 73 Noroeste 0 765.9 -0.7 100
2019-02-16 14:00:00 1.8 59 Norte 78 Noroeste 0 766 -0.5 100
2019-02-16 13:00:00 2 65 Norte 80 Noroeste 0.2 766.3 0.4 100
2019-02-16 12:00:00 1.4 62 Norte 88 Norte 0.2 766.6 1.5 100
2019-02-16 11:00:00 0.7 62 Norte 78 Norte 1.8 766.5 2 100
2019-02-16 10:00:00 0.1 12 Noroeste 70 Norte 2.2 765.9 1.5 100
2019-02-16 09:00:00 -0.2 9 Noroeste 67 Noroeste 1.8 765.1 1.1 100
2019-02-16 08:00:00 -0.2 15 Noroeste 72 Norte 0.4 764.5 0.9 100
2019-02-16 07:00:00 -0.4 17 Noroeste 77 Norte 0.6 764.4 1 100
2019-02-16 06:00:00 -0.4 16 Noroeste 67 Norte 2.4 764 1.4 100
2019-02-16 05:00:00 -0.6 11 Noroeste 66 Noroeste 0.8 763.6 1.3 100
2019-02-16 04:00:00 -0.4 9 Oeste 79 Norte 2.2 763.4 0.6 100
2019-02-16 03:00:00 -0.6 7 Oeste 59 Noroeste 0.4 762.6 -0.8 100
2019-02-16 02:00:00 -0.9 7 Sudoeste 69 Noroeste 1 762.3 -0.8 100
2019-02-16 01:00:00 -0.6 7 Oeste 58 Noroeste 2.8 762.8 -0.3 100
2019-02-16 00:00:00 -1 12 Noroeste 46 Noroeste 1.6 763.4 1 100
2019-02-15 23:00:00 -1 15 Noroeste 89 Noroeste 0 763.1 1.2 100
2019-02-15 22:00:00 -1.4 26 Noroeste 98 Norte 0.2 763.1 1.4 100
2019-02-15 21:00:00 -1.7 74 Noroeste 111 Noroeste 0.2 762.4 0.3 100
2019-02-15 20:00:00 -1.8 86 Noroeste 108 Noroeste 0 761.9 -0.5 100
2019-02-15 19:00:00 -2.1 87 Noroeste 99 Noroeste 0 761.7 -1 100
2019-02-15 18:00:00 -1.7 76 Norte 91 Noroeste 0.4 762.1 -0.6 100
2019-02-15 17:00:00 -1.1 72 Noroeste 88 Noroeste 0.4 762.4 -0.9 100
2019-02-15 16:00:00 -0.4 66 Noroeste 90 Noroeste 0.2 762.7 -1.9 100
2019-02-15 15:00:00 -0.2 71 Noroeste 85 Noroeste 0.6 762.7 -2.9 100
2019-02-15 14:00:00 -0.2 52 Noroeste 76 Noroeste 0 763.3 -2.7 100
2019-02-15 13:00:00 0 49 Noroeste 65 Noroeste 1.2 764.6 -1.7 100
2019-02-15 12:00:00 1.2 33 Noroeste 45 Noroeste 0.8 765.6 -0.4 100
2019-02-15 11:00:00 1.3 32 Noroeste 42 Noroeste 0.4 766 0.2 100
2019-02-15 10:00:00 1.2 21 Noroeste 38 Noroeste 0 766.3 0.3 99
2019-02-15 09:00:00 1.6 35 Noroeste 50 Noroeste 0 766 -0.5 92
2019-02-15 08:00:00 1 33 Noroeste 58 Oeste 0 765.8 -1.1 94
2019-02-15 07:00:00 2.4 32 Oeste 62 Oeste 0 766 -1.2 39
2019-02-15 06:00:00 3.8 42 Sudoeste 72 Sudoeste 0 766.5 -1.1 23
2019-02-15 05:00:00 4 48 Sudoeste 73 Sudoeste 0 766.9 -1 23
2019-02-15 04:00:00 3.6 48 Sudoeste 76 Sudoeste 0 767.2 -1.4 24
2019-02-15 03:00:00 3.5 47 Sudoeste 66 Sur 0 767.6 -1.3 25
2019-02-15 02:00:00 3.3 49 Sur 73 Sur 0 767.9 -1.7 26
2019-02-15 01:00:00 3.3 42 Sur 69 Sudoeste 0 768.6 -1.2 27
2019-02-15 00:00:00 3.4 46 Sudoeste 68 Sudoeste 0 768.9 -0.8 27
2019-02-14 23:00:00 3.5 54 Sudoeste 70 Sudoeste 0 769.6 -0.1 27
2019-02-14 22:00:00 3.6 56 Sudoeste 74 Sudoeste 0 769.8 0.3 28
2019-02-14 21:00:00 3.6 59 Sudoeste 74 Sudoeste 0 769.7 0.6 28
2019-02-14 20:00:00 3.6 59 Sudoeste 69 Sudoeste 0 769.7 0.4 29
2019-02-14 19:00:00 4 61 Sudoeste 77 Sudoeste 0 769.5 -0.6 28
2019-02-14 18:00:00 5.6 60 Sudoeste 77 Sudoeste 0 769.1 -1.3 25
2019-02-14 17:00:00 7.6 58 Sudoeste 77 Sudoeste 0 769.3 -1.5 24
2019-02-14 16:00:00 6.8 47 Sudoeste 67 Sudoeste 0 770.1 -1.5 24
2019-02-14 15:00:00 8.8 36 Sudoeste 59 Sudoeste 0 770.4 -2 22
2019-02-14 14:00:00 9.2 47 Sudoeste 64 Sudoeste 0 770.8 -1.9 27
2019-02-14 13:00:00 8.8 44 Sudoeste 60 Sudoeste 0 771.6 -1.3 28
2019-02-14 12:00:00 8.6 44 Sudoeste 64 Sudoeste 0 772.4 -0.2 24
2019-02-14 11:00:00 8.4 42 Sudoeste 60 Sudoeste 0 772.7 0.3 20
2019-02-14 10:00:00 7.2 41 Sudoeste 52 Sudoeste 0 772.9 0.8 19
2019-02-14 09:00:00 6.2 39 Sudoeste 53 Sudoeste 0 772.6 0.8 20
2019-02-14 08:00:00 4.8 40 Sudoeste 51 Sudoeste 0 772.4 0.6 19
2019-02-14 07:00:00 4.6 39 Sudoeste 50 Sudoeste 0 772.1 0 19
2019-02-14 06:00:00 5.6 40 Sudoeste 50 Sudoeste 0 771.8 -0.7 17
2019-02-14 05:00:00 5.6 36 Sudoeste 48 Sudoeste 0 771.8 -1 16
2019-02-14 04:00:00 5.7 37 Sudoeste 52 Sudoeste 0 772.1 -1 16
2019-02-14 03:00:00 5.6 40 Sudoeste 49 Sudoeste 0 772.5 -0.9 16
2019-02-14 02:00:00 5.6 37 Sudoeste 49 Sudoeste 0 772.8 -1 15
2019-02-14 01:00:00 5.8 36 Sudoeste 48 Sudoeste 0 773.1 -0.6 15
2019-02-14 00:00:00 5.7 35 Sudoeste 42 Sudoeste 0 773.4 -0.1 15
2019-02-13 23:00:00 5.9 33 Sudoeste 44 Sudoeste 0 773.8 0.8 17
2019-02-13 22:00:00 5.8 34 Sudoeste 42 Sudoeste 0 773.7 1 21
2019-02-13 21:00:00 5.8 32 Sudoeste 40 Sudoeste 0 773.5 0.8 21
2019-02-13 20:00:00 5.8 31 Sudoeste 40 Sudoeste 0 773 0.3 16
2019-02-13 19:00:00 6.3 30 Sudoeste 37 Sudoeste 0 772.7 -0.1 15
2019-02-13 18:00:00 8.5 28 Sudoeste 39 Sudoeste 0 772.7 -0.2 15
2019-02-13 17:00:00 10 28 Sudoeste 42 Sur 0 772.7 -0.5 15
2019-02-13 16:00:00 11.1 25 Sur 46 Sur 0 772.8 -1 18
2019-02-13 15:00:00 11 28 Sur 42 Sur 0 772.9 -1.4 19
2019-02-13 14:00:00 11.4 28 Sur 44 Sur 0 773.2 -1.2 20
2019-02-13 13:00:00 11.2 26 Sur 41 Sur 0 773.8 -0.4 19
2019-02-13 12:00:00 10.9 25 Sur 39 Sur 0 774.3 0.6 20
2019-02-13 11:00:00 10.5 24 Sur 39 Sur 0 774.4 1.2 20
2019-02-13 10:00:00 9.7 17 Sur 24 Sur 0 774.2 1.2 22
2019-02-13 09:00:00 8.6 13 Sur 18 Sur 0 773.7 0.9 24
2019-02-13 08:00:00 6.4 13 Sur 15 Sur 0 773.2 0.4 23
2019-02-13 07:00:00 6.4 9 Sudoeste 10 Sudoeste 0 773 0 23
2019-02-13 06:00:00 6.5 7 Sudoeste 9 Sur 0 772.8 -0.5 22
2019-02-13 05:00:00 6.7 8 Sur 11 Sur 0 772.8 -0.9 21
2019-02-13 04:00:00 6.7 9 Sur 12 Sur 0 773 -1 22
2019-02-13 03:00:00 6.8 9 Sur 14 Sudeste 0 773.3 -1 22
2019-02-13 02:00:00 6.9 10 Sur 13 Sudeste 0 773.7 -0.7 23
2019-02-13 01:00:00 7 8 Sur 9 Sur 0 774 -0.5 23
2019-02-13 00:00:00 7.1 5 Sur 10 Sudeste 0 774.3 0 23
2019-02-12 23:00:00 6.7 6 Sudeste 13 Este 0 774.4 0.4 24
2019-02-12 22:00:00 7.2 8 Este 12 Este 0 774.5 0.8 23
2019-02-12 21:00:00 7.5 6 Nordeste 12 Nordeste 0 774.3 0.7 23
2019-02-12 20:00:00 7.7 6 Nordeste 12 Nordeste 0 774 0.6 23
2019-02-12 19:00:00 8.6 5 Norte 10 Nordeste 0 773.7 0.4 23
2019-02-12 18:00:00 10.9 5 Noroeste 14 Norte 0 773.6 0.3 22
2019-02-12 17:00:00 12.2 5 Oeste 18 Noroeste 0 773.4 -0.2 21
2019-02-12 16:00:00 11.7 10 Norte 24 Norte 0 773.3 -0.9 22
2019-02-12 15:00:00 11.9 13 Norte 48 Nordeste 0 773.3 -1 22
2019-02-12 14:00:00 12 12 Norte 46 Este 0 773.6 -0.8 20
2019-02-12 13:00:00 13.1 9 Noroeste 46 Nordeste 0 774.2 0.1 19
2019-02-12 12:00:00 12.5 7 Oeste 40 Sudoeste 0 774.3 0.6 18
2019-02-12 11:00:00 11.2 6 Norte 13 Norte 0 774.4 1.3 22
2019-02-12 10:00:00 9.8 8 Noroeste 14 Noroeste 0 774.1 1.4 23
2019-02-12 09:00:00 7.5 13 Noroeste 16 Noroeste 0 773.7 1 26
2019-02-12 08:00:00 5.6 14 Noroeste 19 Noroeste 0 773.1 0.4 28
2019-02-12 07:00:00 5.5 17 Noroeste 18 Noroeste 0 772.7 -0.2 28
2019-02-12 06:00:00 6.4 12 Noroeste 13 Noroeste 0 772.7 -0.5 27
2019-02-12 05:00:00 6.7 8 Noroeste 17 Oeste 0 772.7 -0.8 27
2019-02-12 04:00:00 6.4 15 Oeste 18 Oeste 0 772.9 -0.8 22
2019-02-12 03:00:00 6.7 9 Oeste 14 Sudoeste 0 773.2 -0.7 23
2019-02-12 02:00:00 5.6 15 Oeste 23 Sudoeste 0 773.5 -0.4 19
2019-02-12 01:00:00 5.9 19 Sudoeste 25 Sudoeste 0 773.7 -0.1 19
2019-02-12 00:00:00 6.9 7 Sur 13 Sur 0 773.9 0.4 15
2019-02-11 23:00:00 6 9 Sudoeste 13 Sudoeste 0 773.9 0.8 21
2019-02-11 22:00:00 6.3 8 Sudeste 11 Sur 0 773.8 1 20
2019-02-11 21:00:00 6.1 8 Sudeste 10 Sur 0 773.5 0.8 22
2019-02-11 20:00:00 6.2 7 Sudeste 11 Sudeste 0 773.1 0.6 28
2019-02-11 19:00:00 7 9 Sudeste 12 Sudeste 0 772.8 0.3 29
2019-02-11 18:00:00 9.3 4 Norte 16 Norte 0 772.7 0.1 23
2019-02-11 17:00:00 10.3 3 Nordeste 19 Sur 0 772.5 -0.3 24
2019-02-11 16:00:00 10.3 13 Sur 32 Sur 0 772.5 -0.6 24
2019-02-11 15:00:00 10.3 19 Sur 42 Sur 0 772.6 -0.6 22
2019-02-11 14:00:00 9.6 28 Sur 48 Sur 0 772.8 -0.4 21
2019-02-11 13:00:00 10 35 Sur 49 Sur 0 773.1 0 19
2019-02-11 12:00:00 8.5 39 Sur 55 Sur 0 773.2 0.7 21
2019-02-11 11:00:00 8.3 40 Sur 57 Sur 0 773.2 1.2 21
2019-02-11 10:00:00 7.3 39 Sur 54 Sur 0 773.1 1.4 23
2019-02-11 09:00:00 6.2 41 Sur 50 Sudoeste 0 772.5 1.4 24
2019-02-11 08:00:00 3.9 41 Sur 48 Sur 0 772 0.9 27
2019-02-11 07:00:00 3.9 39 Sur 53 Sudoeste 0 771.7 0.5 26
2019-02-11 06:00:00 4 44 Sur 53 Sur 0 771.1 -0.3 26
2019-02-11 05:00:00 4.1 46 Sur 55 Sur 0 771.1 -0.8 25
2019-02-11 04:00:00 4 45 Sur 54 Sur 0 771.2 -0.7 25
2019-02-11 03:00:00 4.2 46 Sur 55 Sur 0 771.4 -0.6 24
2019-02-11 02:00:00 4.5 41 Sur 61 Sur 0 771.9 0 24
2019-02-11 01:00:00 4.8 51 Sur 64 Sur 0 771.9 0.1 24
2019-02-11 00:00:00 4.8 55 Sur 66 Sur 0 772 0.4 24
2019-02-10 23:00:00 4.5 55 Sur 68 Sur 0 771.9 0.8 25
2019-02-10 22:00:00 4.3 53 Sur 65 Sur 0 771.8 1.2 23
2019-02-10 21:00:00 4.4 44 Sur 51 Sur 0 771.6 1 17
2019-02-10 20:00:00 4.9 33 Sur 41 Sur 0 771.1 0.6 7
2019-02-10 19:00:00 5.2 36 Sur 48 Sur 0 770.6 0 10
2019-02-10 18:00:00 7.6 38 Sur 48 Sur 0 770.6 -0.1 3
2019-02-10 17:00:00 8.7 41 Sur 48 Sur 0 770.5 -0.6 5
2019-02-10 16:00:00 8.8 37 Sur 51 Sur 0 770.6 -1.1 11
2019-02-10 15:00:00 9.6 37 Sur 48 Sur 0 770.7 -1.3 15
2019-02-10 14:00:00 10 39 Sudeste 48 Sudeste 0 771.1 -1.1 20
2019-02-10 13:00:00 8.8 30 Sudeste 40 Sur 0 771.7 -0.1 23
2019-02-10 12:00:00 9.3 30 Sudeste 39 Sur 0 772 0.7 22
2019-02-10 11:00:00 9.5 28 Sur 44 Sur 0 772.2 0.9 23
2019-02-10 10:00:00 6.6 36 Sur 47 Sur 0 771.8 0.8 23
2019-02-10 09:00:00 5.5 32 Sur 39 Sur 0 771.3 0.6 22
2019-02-10 08:00:00 1.9 23 Sur 34 Sur 0 771.3 1 38
2019-02-10 07:00:00 1.6 29 Sur 36 Sur 0 771 0.5 38
2019-02-10 06:00:00 1.5 31 Sur 41 Sur 0 770.7 -0.1 38
2019-02-10 05:00:00 1.5 39 Sur 45 Sur 0 770.3 -0.7 37
2019-02-10 04:00:00 1.8 36 Sur 39 Sur 0 770.5 -0.5 30
2019-02-10 03:00:00 3.5 24 Sur 31 Sur 0 770.8 -0.5 13
2019-02-10 02:00:00 2.9 25 Sur 39 Sur 0 771 -0.3 20
2019-02-10 01:00:00 4 32 Sur 37 Sur 0 771 -0.3 19
2019-02-10 00:00:00 4.9 24 Sur 33 Sur 0 771.3 0.3 15
2019-02-09 23:00:00 5 30 Sur 38 Sur 0 771.3 0.9 16
2019-02-09 22:00:00 4.6 27 Sur 33 Sur 0 771.3 1.3 18
2019-02-09 21:00:00 4.6 21 Sur 26 Sur 0 771 1.2 17
2019-02-09 20:00:00 4.5 18 Sur 23 Sur 0 770.4 0.6 20
2019-02-09 19:00:00 5 14 Sur 17 Sur 0 770 0.1 16
2019-02-09 18:00:00 7.1 10 Sur 19 Sur 0 769.8 -0.4 16
2019-02-09 17:00:00 8.8 12 Sur 25 Sur 0 769.8 -0.9 11
2019-02-09 16:00:00 10 13 Sur 23 Sur 0 769.9 -1.3 14
2019-02-09 15:00:00 10.8 14 Sudeste 22 Sudeste 0 770.2 -1.4 13
2019-02-09 14:00:00 10.9 12 Sudoeste 20 Sur 0 770.7 -0.9 23
2019-02-09 13:00:00 11.3 10 Sur 28 Sur 0 771.2 -0.1 16
2019-02-09 12:00:00 10.1 18 Sur 28 Sur 0 771.6 0.7 19
2019-02-09 11:00:00 10.4 11 Sur 23 Sudeste 0 771.6 1.1 9
2019-02-09 10:00:00 9.8 9 Sudeste 15 Sudeste 0 771.3 1.2 10
2019-02-09 09:00:00 8 6 Sudeste 11 Este 0 770.9 1 4
2019-02-09 08:00:00 5.6 6 Noroeste 12 Noroeste 0 770.5 0.6 3
2019-02-09 07:00:00 4.2 10 Noroeste 14 Noroeste 0 770.1 0.1 15
2019-02-09 06:00:00 5.3 9 Sudoeste 10 Sudoeste 0 769.9 -0.5 --
2019-02-09 05:00:00 5.1 6 Sudoeste 17 Sur 0 769.9 -1 2
2019-02-09 04:00:00 4.5 16 Sur 20 Sur 0 770 -1.2 2
2019-02-09 03:00:00 5.1 16 Sur 17 Sur 0 770.4 -1 2
2019-02-09 02:00:00 5.4 10 Sudeste 18 Sudeste 0 770.9 -0.6 --
2019-02-09 01:00:00 5.1 14 Sudeste 16 Sudeste 0 771.2 -0.2 3
2019-02-09 00:00:00 5.9 9 Este 12 Norte 0 771.4 0.3 3
2019-02-08 23:00:00 5.8 8 Norte 17 Norte 0 771.5 0.7 4
2019-02-08 22:00:00 4.7 12 Noroeste 17 Noroeste 0 771.4 0.8 5
2019-02-08 21:00:00 4.8 14 Noroeste 20 Norte 0 771.1 0.6 3
2019-02-08 20:00:00 5 16 Noroeste 20 Norte 0 770.8 0.2 2
2019-02-08 19:00:00 4.9 16 Noroeste 22 Noroeste 0 770.6 0 3
2019-02-08 18:00:00 7.5 20 Noroeste 24 Noroeste 0 770.5 -0.3 7
2019-02-08 17:00:00 8.7 16 Noroeste 28 Noroeste 0 770.6 -0.8 15
2019-02-08 16:00:00 9.2 17 Norte 28 Noroeste 0 770.6 -1.3 13
2019-02-08 15:00:00 9.3 16 Norte 28 Noroeste 0 770.8 -1.4 13
2019-02-08 14:00:00 10 13 Norte 25 Noroeste 0 771.4 -1 11
2019-02-08 13:00:00 9.8 12 Norte 24 Norte 0 771.9 -0.2 9
2019-02-08 12:00:00 9.3 16 Noroeste 26 Noroeste 0 772.2 0.4 12
2019-02-08 11:00:00 8.4 15 Noroeste 21 Noroeste 0 772.4 0.9 10
2019-02-08 10:00:00 7.2 13 Noroeste 15 Noroeste 0 772.1 1.1 8
2019-02-08 09:00:00 5.7 15 Noroeste 17 Noroeste 0 771.8 1 4
2019-02-08 08:00:00 4.7 15 Noroeste 22 Noroeste 0 771.5 0.6 4
2019-02-08 07:00:00 4.6 22 Noroeste 26 Noroeste 0 771 -0.1 4
2019-02-08 06:00:00 4.5 19 Noroeste 21 Noroeste 0 770.8 -0.6 8
2019-02-08 05:00:00 4.6 13 Noroeste 16 Noroeste 0 770.9 -1 23
2019-02-08 04:00:00 5.3 10 Noroeste 11 Noroeste 0 771.1 -1.2 17
2019-02-08 03:00:00 5.6 8 Noroeste 10 Noroeste 0 771.4 -1 19
2019-02-08 02:00:00 5.8 6 Noroeste 7 Noroeste 0 771.9 -0.4 16
2019-02-08 01:00:00 5.6 7 Noroeste 9 Norte 0 772.3 0.1 9
2019-02-08 00:00:00 5.9 6 Norte 8 Norte 0 772.4 0.4 8
2019-02-07 23:00:00 5.8 3 Nordeste 10 Norte 0 772.3 0.5 9
2019-02-07 22:00:00 5.8 6 Norte 9 Norte 0 772.2 0.6 11
2019-02-07 21:00:00 5.4 8 Norte 8 Norte 0 772 0.5 12
2019-02-07 20:00:00 5.6 7 Norte 10 Norte 0 771.8 0.2 12
2019-02-07 19:00:00 5.5 9 Norte 13 Noroeste 0 771.6 -0.2 14
2019-02-07 18:00:00 7.8 9 Noroeste 19 Norte 0 771.5 -0.4 14
2019-02-07 17:00:00 9 9 Norte 21 Noroeste 0 771.6 -0.8 18
2019-02-07 16:00:00 10.5 6 Sudeste 14 Sudeste 0 771.8 -1.1 25
2019-02-07 15:00:00 9.9 12 Sudeste 21 Sudeste 0 771.9 -1.4 22
2019-02-07 14:00:00 10.8 8 Sudeste 23 Sudeste 0 772.4 -1 21
2019-02-07 13:00:00 10.7 14 Sudeste 24 Sudeste 0 772.9 -0.4 18
2019-02-07 12:00:00 11 10 Sudeste 23 Sudeste 0 773.3 0.3 13
2019-02-07 11:00:00 10.1 11 Sudeste 21 Sudeste 0 773.4 0.7 7
2019-02-07 10:00:00 9.3 11 Sudeste 20 Sudeste 0 773.3 0.9 6
2019-02-07 09:00:00 7.8 4 Sudeste 8 Sudeste 0 773 0.8 7
2019-02-07 08:00:00 5.6 4 Este 7 Nordeste 0 772.7 0.5 8
2019-02-07 07:00:00 5.1 5 Noroeste 9 Noroeste 0 772.4 0 8
2019-02-07 06:00:00 4.9 9 Noroeste 13 Noroeste 0 772.2 -0.5 10
2019-02-07 05:00:00 4.9 13 Oeste 18 Sudoeste 0 772.2 -0.7 9
2019-02-07 04:00:00 4.5 17 Sudoeste 22 Sudoeste 0 772.4 -0.6 4
2019-02-07 03:00:00 4 20 Sudoeste 22 Sudoeste 0 772.7 -0.4 6
2019-02-07 02:00:00 4.5 21 Sudoeste 26 Sudoeste 0 772.9 -0.1 4
2019-02-07 01:00:00 4.4 25 Sur 28 Sur 0 773 0.1 4
2019-02-07 00:00:00 4.4 27 Sur 33 Sur 0 773.1 0.6 2
2019-02-06 23:00:00 3.8 30 Sur 35 Sur 0 773 1 2
2019-02-06 22:00:00 3.7 34 Sur 40 Sur 0 772.9 1.2 3
2019-02-06 21:00:00 4.2 36 Sur 41 Sur 0 772.5 0.8 3
2019-02-06 20:00:00 3.9 33 Sur 39 Sur 0 772 0.2 8
2019-02-06 19:00:00 5 33 Sur 35 Sur 0 771.7 0 7
2019-02-06 18:00:00 5.9 30 Sur 39 Sur 0 771.7 -0.1 11
2019-02-06 17:00:00 7.6 26 Sur 36 Sur 0 771.8 -0.4 12
2019-02-06 16:00:00 8.1 27 Sur 40 Sur 0 771.7 -0.9 15
2019-02-06 15:00:00 8.5 28 Sur 43 Sur 0 771.8 -1.1 19
2019-02-06 14:00:00 8.8 29 Sur 42 Sur 0 772.2 -0.7 14
2019-02-06 13:00:00 8.7 30 Sur 45 Sur 0 772.6 0 16
2019-02-06 12:00:00 8.7 31 Sur 42 Sur 0 772.9 0.8 15
2019-02-06 11:00:00 7.9 32 Sur 42 Sur 0 772.9 1.1 7
2019-02-06 10:00:00 8.1 32 Sur 40 Sur 0 772.6 1.1 3
2019-02-06 09:00:00 6.7 30 Sur 39 Sur 0 772.1 0.9 4
2019-02-06 08:00:00 4.4 28 Sur 33 Sur 0 771.8 0.7 --
2019-02-06 07:00:00 4.5 22 Sur 27 Sur 0 771.5 0.4 3
2019-02-06 06:00:00 4.4 24 Sur 31 Sur 0 771.2 -0.1 --
2019-02-06 05:00:00 2.7 26 Sur 37 Sur 0 771.1 -0.4 3
2019-02-06 04:00:00 1.9 32 Sur 45 Sur 0 771.1 -0.5 8
2019-02-06 03:00:00 1.6 39 Sur 44 Sur 0 771.3 -0.7 5
2019-02-06 02:00:00 2.3 38 Sur 43 Sur 0 771.5 -0.8 5
2019-02-06 01:00:00 3.4 39 Sur 44 Sur 0 771.6 -0.4 3
2019-02-06 00:00:00 4.5 39 Sur 44 Sur 0 772 0.3 4
2019-02-05 23:00:00 4.7 33 Sur 45 Sur 0 772.3 1 4
2019-02-05 22:00:00 4.3 34 Sur 44 Sur 0 772 0.9 5
2019-02-05 21:00:00 4.1 37 Sur 49 Sur 0 771.7 0.5 5
2019-02-05 20:00:00 4.1 38 Sur 46 Sur 0 771.3 0.3 5
2019-02-05 19:00:00 4.6 40 Sur 47 Sudeste 0 771.1 0.2 5
2019-02-05 18:00:00 5.6 36 Sur 45 Sur 0 771.2 0.2 6
2019-02-05 17:00:00 6.4 36 Sur 45 Sur 0 771 -0.3 10
2019-02-05 16:00:00 6.7 33 Sur 42 Sur 0 770.9 -1 11
2019-02-05 15:00:00 7.1 29 Sur 42 Sur 0 771 -1.2 13
2019-02-05 14:00:00 7.4 32 Sudeste 46 Sur 0 771.3 -1.1 21
2019-02-05 13:00:00 6.6 36 Sur 49 Sur 0 771.9 -0.1 16
2019-02-05 12:00:00 6.1 38 Sur 54 Sur 0 772.2 0.5 15
2019-02-05 11:00:00 5.9 39 Sur 54 Sur 0 772.4 1.2 15
2019-02-05 10:00:00 6.2 37 Sur 50 Sur 0 772 1 10
2019-02-05 09:00:00 5.2 36 Sur 54 Sur 0 771.7 1 10
2019-02-05 08:00:00 3.5 42 Sur 52 Sur 0 771.2 0.6 14
2019-02-05 07:00:00 2.8 33 Sur 46 Sur 0 771 0.3 16
2019-02-05 06:00:00 1.9 38 Sur 46 Sur 0 770.7 0 24
2019-02-05 05:00:00 1.4 40 Sur 45 Sur 0 770.6 -0.4 27
2019-02-05 04:00:00 0.9 41 Sudoeste 50 Sudoeste 0 770.7 -0.3 30
2019-02-05 03:00:00 1 45 Sudoeste 55 Sur 0 770.7 -0.3 34
2019-02-05 02:00:00 1.4 50 Sur 61 Sur 0 771 0.2 36
2019-02-05 01:00:00 1.6 53 Sur 59 Sur 0 771 0.2 39
2019-02-05 00:00:00 1.6 51 Sur 58 Sur 0 771 0.3 41
2019-02-04 23:00:00 1.7 52 Sur 57 Sur 0 770.8 0.3 43
2019-02-04 22:00:00 2 50 Sur 54 Sur 0 770.8 0.7 47
2019-02-04 21:00:00 2.4 45 Sudoeste 52 Sudoeste 0 770.7 0.8 50
2019-02-04 20:00:00 2.7 41 Sudoeste 45 Sudoeste 0 770.5 0.6 49
2019-02-04 19:00:00 2.9 36 Sur 40 Sur 0 770.1 0.1 46
2019-02-04 18:00:00 4.7 36 Sur 41 Sur 0 769.9 -0.1 40
2019-02-04 17:00:00 6.6 34 Sur 42 Sur 0 769.9 -0.3 37
2019-02-04 16:00:00 8 33 Sur 42 Sur 0 770 -0.7 37
2019-02-04 15:00:00 9.3 30 Sur 40 Sur 0 770 -1 30
2019-02-04 14:00:00 9.2 33 Sur 46 Sur 0 770.2 -0.9 30
2019-02-04 13:00:00 9 36 Sur 48 Sur 0 770.7 -0.3 40
2019-02-04 12:00:00 9.6 31 Sur 45 Sur 0 771 0.5 37
2019-02-04 11:00:00 9.4 30 Sur 41 Sur 0 771.1 1 35
2019-02-04 10:00:00 9.1 26 Sur 34 Sur 0 771 1.4 19
2019-02-04 09:00:00 7.7 23 Sur 37 Sur 0 770.5 1.2 15
2019-02-04 08:00:00 6.3 28 Sur 41 Sudeste 0 770.1 0.6 12
2019-02-04 07:00:00 6.6 32 Sudeste 39 Sudeste 0 769.6 0.2 6
2019-02-04 06:00:00 5.8 29 Sudeste 42 Sudeste 0 769.3 -0.4 4
2019-02-04 05:00:00 5.7 37 Sudeste 47 Sur 0 769.5 -0.5 4
2019-02-04 04:00:00 6.3 40 Sudeste 49 Sudeste 0 769.4 -0.9 11
2019-02-04 03:00:00 6.3 38 Sudeste 51 Sudeste 0 769.7 -0.9 9
2019-02-04 02:00:00 6 37 Sudeste 52 Sudeste 0 770 -0.9 10
2019-02-04 01:00:00 5.2 34 Sudeste 49 Sudeste 0 770.3 -0.4 9
2019-02-04 00:00:00 5.7 27 Sudeste 39 Sudeste 0 770.6 0.3 9
2019-02-03 23:00:00 5.9 28 Sudeste 45 Sudeste 0 770.9 0.9 14
2019-02-03 22:00:00 5.1 35 Sudeste 46 Sudeste 0 770.7 1.2 16
2019-02-03 21:00:00 4.4 31 Sudeste 44 Sudeste 0 770.3 0.9 19
2019-02-03 20:00:00 4.3 32 Sudeste 46 Sudeste 0 770 0.7 20
2019-02-03 19:00:00 4.4 35 Sudeste 48 Sudeste 0 769.5 0.2 15
2019-02-03 18:00:00 4.8 30 Sudeste 36 Sudeste 0 769.4 0.1 8
2019-02-03 17:00:00 6.9 27 Sudeste 33 Sudeste 0 769.3 -0.7 15
2019-02-03 16:00:00 7.6 28 Sudeste 42 Sudeste 0 769.3 -1.1 10
2019-02-03 15:00:00 8.4 33 Sudeste 42 Sudeste 0 769.3 -1.6 11
2019-02-03 14:00:00 8.8 27 Sudeste 42 Sudeste 0 770 -1 13
2019-02-03 13:00:00 8.9 33 Sudeste 41 Sudeste 0 770.4 -0.4 10
2019-02-03 12:00:00 8.8 23 Sudeste 36 Sudeste 0 770.9 0.5 14
2019-02-03 11:00:00 8.5 22 Sudeste 35 Sudeste 0 771 1.2 14
2019-02-03 10:00:00 7.8 23 Sudeste 37 Sudeste 0 770.8 1.4 15
2019-02-03 09:00:00 6.5 21 Este 35 Este 0 770.4 1.2 17
2019-02-03 08:00:00 4.4 25 Este 36 Este 0 769.8 0.6 14
2019-02-03 07:00:00 4.1 26 Este 35 Este 0 769.4 -0.2 11
2019-02-03 06:00:00 5.1 23 Nordeste 34 Este 0 769.2 -0.6 14
2019-02-03 05:00:00 5.1 23 Este 30 Este 0 769.2 -0.8 29
2019-02-03 04:00:00 4.6 11 Nordeste 28 Nordeste 0 769.6 -0.6 39
2019-02-03 03:00:00 4.4 21 Norte 30 Nordeste 0 769.8 -0.6 36
2019-02-03 02:00:00 4 24 Norte 36 Norte 0 770 -0.4 17
2019-02-03 01:00:00 4.6 27 Nordeste 42 Nordeste 0 770.2 0 24
2019-02-03 00:00:00 3.8 28 Norte 34 Norte 0 770.4 0.6 12
2019-02-02 23:00:00 2.8 26 Norte 39 Norte 0 770.4 0.9 7
2019-02-02 22:00:00 2.8 33 Norte 41 Norte 0 770.2 1.1 7
2019-02-02 21:00:00 2.4 35 Norte 43 Norte 0 769.8 0.7 6
2019-02-02 20:00:00 2.8 32 Norte 39 Norte 0 769.5 0.6 5
2019-02-02 19:00:00 3.4 30 Norte 37 Norte 0 769.1 0.1 6
2019-02-02 18:00:00 5.3 29 Norte 38 Norte 0 769.1 -0.3 7
2019-02-02 17:00:00 6.2 33 Norte 42 Norte 0 768.9 -0.9 6
2019-02-02 16:00:00 7.2 29 Norte 36 Norte 0 769 -1.1 10
2019-02-02 15:00:00 7.7 18 Norte 28 Norte 0 769.4 -0.9 9
2019-02-02 14:00:00 7.9 15 Norte 27 Nordeste 0 769.8 -0.5 14
2019-02-02 13:00:00 7.2 22 Norte 32 Norte 0 770.1 0.1 15
2019-02-02 12:00:00 5.8 25 Norte 35 Nordeste 0 770.3 0.8 20
2019-02-02 11:00:00 5.9 26 Norte 43 Norte 0 770.3 1.7 24
2019-02-02 10:00:00 4.5 29 Norte 43 Norte 0 770 1.7 18
2019-02-02 09:00:00 3.6 20 Nordeste 42 Norte 0 769.5 1.5 24
2019-02-02 08:00:00 3.2 26 Norte 39 Nordeste 0 768.6 0.8 21
2019-02-02 07:00:00 2.7 24 Norte 44 Norte 0 768.3 0.7 34
2019-02-02 06:00:00 1.6 27 Norte 38 Norte 0 768 0.2 57
2019-02-02 05:00:00 2.3 31 Norte 44 Norte 0.2 767.8 -0.4 100
2019-02-02 04:00:00 3.1 43 Noroeste 50 Norte 0 767.6 -0.6 100
2019-02-02 03:00:00 3.8 42 Norte 49 Norte 0 767.8 -0.9 100
2019-02-02 02:00:00 3.5 38 Norte 46 Norte 0 768.2 -0.3 100
2019-02-02 01:00:00 3.5 45 Noroeste 51 Noroeste 0 768.2 0 100
2019-02-02 00:00:00 2.9 35 Norte 44 Norte 0 768.7 0.6 100
2019-02-01 23:00:00 1.7 35 Noroeste 43 Norte 0 768.5 0.7 97
2019-02-01 22:00:00 1.4 32 Noroeste 37 Noroeste 0 768.2 0.7 55
2019-02-01 21:00:00 3.1 29 Noroeste 44 Noroeste 0 768.1 1.6 22
2019-02-01 20:00:00 4.1 33 Noroeste 39 Noroeste 0 767.8 1.8 15
2019-02-01 19:00:00 2.5 35 Noroeste 57 Noroeste 0 767.5 1.2 63
2019-02-01 18:00:00 2.8 47 Noroeste 66 Noroeste 0 766.5 0.4 98
2019-02-01 17:00:00 3.5 57 Noroeste 68 Noroeste 0 766 -0.5 98
2019-02-01 16:00:00 6.5 60 Noroeste 71 Noroeste 0 766.3 -1 72
2019-02-01 15:00:00 4.3 64 Noroeste 78 Norte 0 766.1 -1.9 95
2019-02-01 14:00:00 5.7 59 Noroeste 70 Noroeste 0 766.5 -1.8 80
2019-02-01 13:00:00 5.2 56 Noroeste 64 Noroeste 0 767.3 -1 75
2019-02-01 12:00:00 7.2 51 Noroeste 58 Noroeste 0 768 0 31
2019-02-01 11:00:00 6.5 47 Noroeste 56 Noroeste 0 768.3 0.4 22
2019-02-01 10:00:00 6.1 44 Noroeste 53 Noroeste 0 768.3 0.8 14
2019-02-01 09:00:00 5.3 41 Noroeste 49 Noroeste 0 768 0.6 14
2019-02-01 08:00:00 4.4 41 Noroeste 48 Noroeste 0 767.9 0.4 16
2019-02-01 07:00:00 3.9 41 Noroeste 50 Noroeste 0 767.5 -0.2 16
2019-02-01 06:00:00 5.1 43 Noroeste 50 Noroeste 0 767.4 -0.9 13
2019-02-01 05:00:00 4.7 37 Noroeste 41 Noroeste 0 767.5 -1.3 7
2019-02-01 04:00:00 4.2 28 Noroeste 30 Noroeste 0 767.7 -1.3 11
2019-02-01 03:00:00 5.5 27 Noroeste 29 Noroeste 0 768.3 -0.9 9
2019-02-01 02:00:00 6.7 21 Noroeste 22 Noroeste 0 768.8 -0.5 7
2019-02-01 01:00:00 7 16 Noroeste 20 Noroeste 0 769 -0.4 6
2019-02-01 00:00:00 5.9 18 Noroeste 21 Noroeste 0 769.2 -0.1 8
2019-01-31 23:00:00 6.2 19 Noroeste 23 Noroeste 0 769.3 0.5 8
2019-01-31 22:00:00 6.2 17 Noroeste 21 Noroeste 0 769.4 0.9 7
2019-01-31 21:00:00 7.3 16 Noroeste 26 Noroeste 0 769.3 0.8 5
2019-01-31 20:00:00 6.8 22 Noroeste 28 Noroeste 0 768.8 0.4 6
2019-01-31 19:00:00 7.7 27 Noroeste 30 Noroeste 0 768.5 0.1 5
2019-01-31 18:00:00 10 24 Noroeste 32 Noroeste 0 768.5 -0.1 6
2019-01-31 17:00:00 11.4 23 Noroeste 31 Noroeste 0 768.4 -0.5 4
2019-01-31 16:00:00 12.5 13 Noroeste 20 Noroeste 0 768.4 -1 6
2019-01-31 15:00:00 12.6 14 Norte 23 Noroeste 0 768.6 -1.2 10
2019-01-31 14:00:00 11.9 14 Norte 22 Norte 0 768.9 -1.2 12
2019-01-31 13:00:00 11.9 13 Norte 23 Norte 0 769.4 -0.1 10
2019-01-31 12:00:00 11.6 18 Noroeste 34 Norte 0 769.8 0.5 8
2019-01-31 11:00:00 10.1 23 Noroeste 34 Norte 0 770.1 1.2 7
2019-01-31 10:00:00 8.8 26 Norte 33 Norte 0 769.5 0.9 6
2019-01-31 09:00:00 6.4 26 Norte 35 Noroeste 0 769.3 0.8 10
2019-01-31 08:00:00 5.7 27 Noroeste 40 Noroeste 0 768.9 0.4 8
2019-01-31 07:00:00 4.8 32 Noroeste 42 Norte 0 768.6 -0.4 8
2019-01-31 06:00:00 4.7 25 Noroeste 28 Noroeste 0 768.5 -0.8 10
2019-01-31 05:00:00 5.1 20 Noroeste 25 Noroeste 0 768.5 -1.3 9
2019-01-31 04:00:00 3.6 20 Noroeste 26 Noroeste 0 769 -1.2 11
2019-01-31 03:00:00 5.1 19 Noroeste 32 Norte 0 769.3 -1 10
2019-01-31 02:00:00 5.6 18 Noroeste 23 Noroeste 0 769.8 -0.7 10
2019-01-31 01:00:00 6.2 16 Noroeste 22 Norte 0 770.2 -0.2 10
2019-01-31 00:00:00 6.1 20 Norte 31 Noroeste 0 770.3 0.2 10
2019-01-30 23:00:00 6.5 23 Norte 36 Norte 0 770.5 0.5 10
2019-01-30 22:00:00 5.5 26 Norte 39 Noroeste 0 770.4 0.7 9
2019-01-30 21:00:00 5.2 32 Noroeste 40 Norte 0 770.1 0.3 9
2019-01-30 20:00:00 4.4 24 Noroeste 26 Noroeste 0 770 0.2 11
2019-01-30 19:00:00 5.9 18 Noroeste 23 Noroeste 0 769.7 -0.2 10
2019-01-30 18:00:00 7.8 19 Noroeste 31 Norte 0 769.8 -0.2 11
2019-01-30 17:00:00 9 24 Norte 33 Norte 0 769.8 -0.7 16
2019-01-30 16:00:00 10.2 19 Norte 33 Norte 0 769.9 -1.1 14
2019-01-30 15:00:00 9 26 Norte 33 Norte 0 770 -1.6 16
2019-01-30 14:00:00 8.5 21 Norte 44 Norte 0 770.5 -1.1 13
2019-01-30 13:00:00 8.8 35 Norte 52 Norte 0 771 -0.6 15
2019-01-30 12:00:00 7.8 41 Norte 52 Norte 0 771.6 0.4 13
2019-01-30 11:00:00 7.5 42 Norte 51 Norte 0 771.6 0.7 16
2019-01-30 10:00:00 6.3 35 Norte 40 Norte 0 771.6 1 13
2019-01-30 09:00:00 4.6 28 Noroeste 32 Norte 0 771.2 1.1 17
2019-01-30 08:00:00 4.1 21 Norte 24 Norte 0 770.9 1 17
2019-01-30 07:00:00 4.9 20 Noroeste 30 Noroeste 0 770.6 0.1 16
2019-01-30 06:00:00 3.6 29 Noroeste 40 Noroeste 0 770.1 -0.5 22
2019-01-30 05:00:00 3 33 Noroeste 43 Norte 0 769.9 -1.7 23
2019-01-30 04:00:00 3.4 27 Norte 33 Norte 0 770.5 -1.8 22
2019-01-30 03:00:00 3.4 31 Norte 35 Norte 0 770.6 -2.1 22
2019-01-30 02:00:00 5.2 17 Norte 29 Nordeste 0 771.6 -0.9 16
2019-01-30 01:00:00 6.4 19 Norte 35 Nordeste 0 772.3 -0.2 11
2019-01-30 00:00:00 6.1 21 Norte 39 Norte 0 772.7 0.4 12
2019-01-29 23:00:00 6.2 28 Norte 40 Norte 0 772.5 0.3 13
2019-01-29 22:00:00 6.9 27 Norte 36 Norte 0 772.5 0.4 11
2019-01-29 21:00:00 7.3 17 Norte 26 Norte 0 772.3 0.2 10
2019-01-29 20:00:00 7.1 18 Norte 30 Norte 0 772.2 0.1 11
2019-01-29 19:00:00 7.1 22 Norte 28 Norte 0 772.1 0.1 9
2019-01-29 18:00:00 8.2 18 Norte 26 Norte 0 772.1 -0.3 11
2019-01-29 17:00:00 10.4 17 Norte 30 Norte 0 772.1 -0.9 16
2019-01-29 16:00:00 10.5 20 Norte 29 Norte 0 772 -1.8 18
2019-01-29 15:00:00 11.4 19 Norte 28 Norte 0 772.4 -2 16
2019-01-29 14:00:00 12.6 13 Norte 27 Nordeste 0 773 -1.6 18
2019-01-29 13:00:00 12.1 15 Nordeste 26 Norte 0 773.8 -0.3 10
2019-01-29 12:00:00 12.6 13 Norte 26 Nordeste 0 774.4 0.8 17
2019-01-29 11:00:00 11.4 13 Nordeste 31 Nordeste 0 774.6 1.3 10
2019-01-29 10:00:00 9.3 21 Norte 31 Nordeste 0 774.1 1 10
2019-01-29 09:00:00 7.9 21 Norte 31 Norte 0 773.6 0.8 10
2019-01-29 08:00:00 7.3 24 Norte 27 Norte 0 773.3 0.4 11
2019-01-29 07:00:00 7.1 23 Norte 28 Norte 0 773.1 0.1 10
2019-01-29 06:00:00 6.9 22 Norte 25 Norte 0 772.8 -0.6 11
2019-01-29 05:00:00 6.9 20 Norte 22 Norte 0 772.9 -0.8 12
2019-01-29 04:00:00 7.2 12 Norte 17 Norte 0 773 -0.8 11
2019-01-29 03:00:00 7.2 13 Norte 18 Norte 0 773.4 -0.6 11
2019-01-29 02:00:00 7.4 14 Nordeste 19 Este 0 773.7 -0.2 10
2019-01-29 01:00:00 7 10 Nordeste 19 Este 0 773.8 -0.1 11
2019-01-29 00:00:00 6.9 16 Este 23 Este 0 774 0.3 11
2019-01-28 23:00:00 6.9 18 Este 25 Este 0 773.9 0.4 11
2019-01-28 22:00:00 6.8 17 Este 25 Este 0 773.9 0.6 12
2019-01-28 21:00:00 6.7 14 Este 21 Este 0 773.7 0.7 12
2019-01-28 20:00:00 6.9 18 Este 23 Este 0 773.5 0.6 12
2019-01-28 19:00:00 7.6 15 Este 19 Este 0 773.3 0.3 10
2019-01-28 18:00:00 9.4 12 Sudeste 26 Sudeste 0 773 -0.2 9
2019-01-28 17:00:00 11 18 Sudeste 24 Sudeste 0 772.9 -0.7 8
2019-01-28 16:00:00 12.7 14 Sudeste 24 Este 0 773 -1.4 9
2019-01-28 15:00:00 12.9 17 Este 28 Este 0 773.2 -1.3 12
2019-01-28 14:00:00 13.1 14 Este 33 Este 0 773.6 -0.7 11
2019-01-28 13:00:00 13.2 14 Nordeste 33 Nordeste 0 774.4 0.4 10
2019-01-28 12:00:00 10.7 21 Norte 33 Nordeste 0 774.5 0.9 12
2019-01-28 11:00:00 10.8 20 Nordeste 32 Nordeste 0 774.3 1.4 10
2019-01-28 10:00:00 8.5 17 Nordeste 24 Nordeste 0 774 1.4 12
2019-01-28 09:00:00 7.5 11 Nordeste 31 Nordeste 0 773.6 1.2 14
2019-01-28 08:00:00 5.7 27 Nordeste 31 Nordeste 0 772.9 0.6 16
2019-01-28 07:00:00 5.2 26 Nordeste 30 Nordeste 0 772.6 0.2 16
2019-01-28 06:00:00 5.9 25 Nordeste 30 Nordeste 0 772.4 -0.3 14
2019-01-28 05:00:00 7.4 17 Nordeste 31 Nordeste 0 772.3 -0.3 11
2019-01-28 04:00:00 5.7 19 Norte 27 Norte 0 772.4 -0.5 12
2019-01-28 03:00:00 5.8 19 Norte 29 Norte 0 772.7 -0.2 12
2019-01-28 02:00:00 5.4 24 Norte 30 Norte 0 772.6 -0.3 16
2019-01-28 01:00:00 5.6 26 Norte 38 Norte 0 772.9 0.2 16
2019-01-28 00:00:00 4.6 32 Norte 44 Norte 0 772.9 0.4 25
2019-01-27 23:00:00 3.9 31 Norte 44 Norte 0 772.9 0.9 30
2019-01-27 22:00:00 3.9 30 Norte 44 Norte 0 772.7 1.7 27
2019-01-27 21:00:00 4.3 27 Norte 39 Norte 0 772.5 1.7 26
2019-01-27 20:00:00 3.2 35 Norte 50 Noroeste 0 772 1.8 24
2019-01-27 19:00:00 3.2 41 Noroeste 49 Noroeste 0 771 0.7 32
2019-01-27 18:00:00 5.6 45 Noroeste 53 Noroeste 0 770.8 0.3 28
2019-01-27 17:00:00 7 48 Noroeste 55 Noroeste 0 770.2 -0.9 46
2019-01-27 16:00:00 8.5 45 Noroeste 54 Noroeste 0 770.3 -1.1 28
2019-01-27 15:00:00 8.4 44 Noroeste 49 Noroeste 0 770.5 -1.5 33
2019-01-27 14:00:00 8.9 32 Noroeste 40 Noroeste 0 771.1 -1 32
2019-01-27 13:00:00 8.8 34 Noroeste 46 Noroeste 0 771.4 0.1 33
2019-01-27 12:00:00 9.2 30 Noroeste 39 Noroeste 0 772 1.3 11
2019-01-27 11:00:00 9.1 19 Noroeste 39 Noroeste 0 772.1 1.9 12
2019-01-27 10:00:00 7.8 30 Noroeste 39 Noroeste 0 771.3 1.4 6
2019-01-27 09:00:00 6.9 35 Noroeste 44 Noroeste 0 770.7 1.1 7
2019-01-27 08:00:00 5.9 33 Noroeste 38 Noroeste 0 770.2 0.4 7
2019-01-27 07:00:00 5.5 30 Noroeste 32 Noroeste 0 769.9 0.2 7
2019-01-27 06:00:00 4.7 22 Noroeste 25 Noroeste 0 769.6 -0.1 10
2019-01-27 05:00:00 4.6 19 Noroeste 24 Noroeste 0 769.8 -0.1 7
2019-01-27 04:00:00 3.7 14 Noroeste 23 Noroeste 0 769.7 -0.3 17
2019-01-27 03:00:00 4.9 18 Noroeste 26 Noroeste 0 769.7 -0.3 7
2019-01-27 02:00:00 4.2 18 Noroeste 25 Noroeste 0 769.9 -0.1 13
2019-01-27 01:00:00 5.4 23 Noroeste 32 Noroeste 0 770 0.2 7
2019-01-27 00:00:00 5.1 22 Noroeste 27 Noroeste 0 770 0.6 8
2019-01-26 23:00:00 4.5 11 Norte 18 Noroeste 0 770 1.2 11
2019-01-26 22:00:00 4.3 15 Noroeste 28 Norte 0 769.8 1.5 11
2019-01-26 21:00:00 3.9 18 Norte 26 Norte 0 769.4 1.4 12
2019-01-26 20:00:00 1.9 17 Norte 24 Norte 0 768.8 0.8 38
2019-01-26 19:00:00 2.1 19 Noroeste 22 Noroeste 0 768.3 0.9 42
2019-01-26 18:00:00 4.5 18 Noroeste 24 Noroeste 0 768 0.6 50
2019-01-26 17:00:00 5 16 Noroeste 39 Noroeste 0 768 -0.2 38
2019-01-26 16:00:00 5.1 30 Noroeste 40 Noroeste 0 767.4 -1.2 36
2019-01-26 15:00:00 6.6 9 Noroeste 19 Noroeste 0 767.4 -1.4 71
2019-01-26 14:00:00 6 12 Sur 29 Sur 0 768.2 -0.5 72
2019-01-26 13:00:00 6.7 12 Noroeste 31 Sur 0 768.6 0.1 70
2019-01-26 12:00:00 8.3 17 Sur 28 Sur 0 768.8 0.9 25
2019-01-26 11:00:00 7.6 18 Sur 29 Sur 0 768.7 1.3 28
2019-01-26 10:00:00 7.1 16 Sur 31 Sur 0 768.5 1.5 24
2019-01-26 09:00:00 5.5 23 Sur 28 Sur 0 767.9 1.5 28
2019-01-26 08:00:00 3 21 Sur 24 Sur 0 767.4 1 31
2019-01-26 07:00:00 3.8 16 Sur 21 Sur 0 767 0.4 26
2019-01-26 06:00:00 3.5 20 Sur 22 Sur 0 766.4 0 31
2019-01-26 05:00:00 3.8 11 Sudeste 13 Sudeste 0 766.4 -0.5 28
2019-01-26 04:00:00 3.8 7 Sur 14 Sur 0 766.6 -0.4 30
2019-01-26 03:00:00 3.1 8 Sur 11 Sur 0 766.4 -0.6 38
2019-01-26 02:00:00 3.5 4 Este 12 Sudoeste 0 766.9 0 36
2019-01-26 01:00:00 4.4 5 Sur 10 Sur 0 767 0.2 27
2019-01-26 00:00:00 4 7 Sudoeste 8 Sudoeste 0 767 0.5 36
2019-01-25 23:00:00 4.2 4 Noroeste 9 Oeste 0 766.9 0.8 32
2019-01-25 22:00:00 4.6 6 Oeste 11 Sudoeste 0 766.8 1.2 24
2019-01-25 21:00:00 3.4 5 Sudeste 8 Sudeste 0 766.5 1 32
2019-01-25 20:00:00 3.2 3 Nordeste 10 Este 0 766.1 0.6 34
2019-01-25 19:00:00 3.5 8 Este 10 Norte 0 765.6 0.2 29
2019-01-25 18:00:00 5.8 10 Noroeste 13 Noroeste 0 765.5 0.2 56
2019-01-25 17:00:00 8.7 3 Sur 13 Noroeste 0 765.5 0 37
2019-01-25 16:00:00 8.4 5 Sudeste 14 Sudeste 0 765.4 -0.8 51
2019-01-25 15:00:00 8.8 8 Sudeste 19 Sudeste 0 765.3 -1.3 39
2019-01-25 14:00:00 8 14 Sudeste 19 Sudeste 0 765.5 -1 34
2019-01-25 13:00:00 7.8 14 Sudeste 22 Sudeste 0 766.2 -0.1 27
2019-01-25 12:00:00 7.5 12 Sudeste 25 Sudeste 0 766.6 0.6 29
2019-01-25 11:00:00 7.3 14 Sudeste 22 Sudeste 0 766.5 0.7 30
2019-01-25 10:00:00 7 8 Sudeste 14 Sudeste 0 766.3 1.1 21
2019-01-25 09:00:00 4.8 5 Este 11 Este 0 766 0.9 20
2019-01-25 08:00:00 3.2 9 Este 15 Nordeste 0 765.8 0.7 28
2019-01-25 07:00:00 3.2 11 Nordeste 16 Nordeste 0 765.2 0 51
2019-01-25 06:00:00 2.6 12 Este 17 Este 0 765.1 -0.3 58
2019-01-25 05:00:00 2.7 13 Este 19 Este 0 765.1 -0.5 50
2019-01-25 04:00:00 2.8 16 Este 23 Este 0 765.2 -0.6 58
2019-01-25 03:00:00 2.9 14 Este 19 Este 0 765.4 -0.6 59
2019-01-25 02:00:00 2.5 16 Este 22 Este 0 765.6 -0.6 60
2019-01-25 01:00:00 2.1 15 Este 28 Este 0 765.8 -0.4 27
2019-01-25 00:00:00 2.3 18 Este 27 Este 0 766 -0.1 34
2019-01-24 23:00:00 2.4 14 Este 19 Este 0 766.2 0.4 62
2019-01-24 22:00:00 2.7 12 Este 18 Este 0 766.2 0.6 67
2019-01-24 21:00:00 3.1 15 Este 25 Este 0 766.1 0.4 62
2019-01-24 20:00:00 2.4 15 Sudeste 23 Este 0 765.8 0.1 66
2019-01-24 19:00:00 3.2 21 Sudeste 26 Sudeste 0 765.6 -0.1 57
2019-01-24 18:00:00 4.8 16 Este 22 Este 0 765.7 -0.1 30
2019-01-24 17:00:00 7 12 Este 18 Este 0 765.7 -0.7 11
2019-01-24 16:00:00 8 10 Este 26 Este 0 765.7 -1.3 15
2019-01-24 15:00:00 8 12 Nordeste 29 Este 0 765.8 -1.7 12
2019-01-24 14:00:00 8.6 12 Este 26 Nordeste 0 766.4 -1.4 25
2019-01-24 13:00:00 7.8 17 Norte 33 Nordeste 0 767 -0.7 18
2019-01-24 12:00:00 8.4 15 Nordeste 38 Norte 0 767.5 0.1 11
2019-01-24 11:00:00 6.6 14 Norte 27 Nordeste 0 767.8 0.5 21
2019-01-24 10:00:00 6.3 6 Norte 24 Nordeste 0 767.7 0.5 28
2019-01-24 09:00:00 5.7 11 Nordeste 22 Este 0 767.4 0.2 27
2019-01-24 08:00:00 4.4 17 Este 20 Este 0 767.3 -0.2 23
2019-01-24 07:00:00 4.1 15 Este 23 Este 0 767.2 -0.8 20
2019-01-24 06:00:00 3.5 13 Este 23 Este 0 767.2 -1.2 28
2019-01-24 05:00:00 3.2 16 Este 30 Este 0 767.5 -1.4 28
2019-01-24 04:00:00 3.7 20 Este 32 Este 0 768 -1.3 19
2019-01-24 03:00:00 3.5 21 Este 31 Este 0 768.4 -1.3 15
2019-01-24 02:00:00 3.5 17 Este 29 Este 0 768.9 -1 27
2019-01-24 01:00:00 3 21 Este 30 Este 0 769.3 -0.6 28
2019-01-24 00:00:00 3.7 18 Este 28 Nordeste 0 769.7 0 17
2019-01-23 23:00:00 5 21 Nordeste 26 Nordeste 0 769.9 0.2 15
2019-01-23 22:00:00 4.8 17 Nordeste 25 Norte 0 769.9 0.2 12
2019-01-23 21:00:00 3.8 22 Norte 32 Norte 0 769.7 -0.2 14
2019-01-23 20:00:00 3.9 22 Norte 24 Norte 0 769.7 -0.4 4
2019-01-23 19:00:00 4 22 Norte 23 Norte 0 769.7 -0.5 6
2019-01-23 18:00:00 6.1 9 Norte 14 Este 0 769.9 -0.6 11
2019-01-23 17:00:00 7.7 8 Este 17 Este 0 770.1 -0.9 9
2019-01-23 16:00:00 10.1 8 Este 12 Este 0 770.2 -1.8 7
2019-01-23 15:00:00 10 9 Sudeste 15 Sudeste 0 770.5 -2.1 7
2019-01-23 14:00:00 9.6 12 Sudeste 23 Sur 0 771 -1.7 18
2019-01-23 13:00:00 9.4 16 Sudeste 24 Sudeste 0 772 -0.2 11
2019-01-23 12:00:00 8.7 18 Sudeste 31 Sudeste 0 772.6 0.8 8
2019-01-23 11:00:00 7.4 24 Sudeste 40 Sudeste 0 772.7 1.1 10
2019-01-23 10:00:00 6.5 33 Sudeste 43 Sudeste 0 772.2 0.9 6
2019-01-23 09:00:00 5.6 32 Sudeste 37 Sudeste 0 771.8 0.7 6
2019-01-23 08:00:00 3.1 25 Sudeste 32 Sudeste 0 771.6 0.6 6
2019-01-23 07:00:00 3.6 27 Sudeste 35 Sudeste 0 771.3 0.1 6
2019-01-23 06:00:00 3.6 24 Sudeste 32 Sudeste 0 771.1 -0.2 6
2019-01-23 05:00:00 3.6 30 Sudeste 37 Sudeste 0 771 -0.7 6
2019-01-23 04:00:00 3.3 34 Sudeste 45 Sudeste 0 771.2 -0.5 7
2019-01-23 03:00:00 2.2 34 Sudeste 40 Sudeste 0 771.3 -0.6 12
2019-01-23 02:00:00 2.5 31 Sudeste 44 Sudeste 0 771.7 -0.3 12
2019-01-23 01:00:00 2.4 31 Sudeste 43 Sudeste 0 771.7 0.1 12
2019-01-23 00:00:00 1.9 27 Sudeste 36 Este 0 771.9 0.5 15
2019-01-22 23:00:00 2.4 22 Sudeste 35 Este 0 772 1 13
2019-01-22 22:00:00 2.8 18 Sudeste 31 Sudeste 0 771.6 0.8 10
2019-01-22 21:00:00 2.8 23 Sudeste 32 Sudeste 0 771.4 0.6 10
2019-01-22 20:00:00 2.8 28 Sudeste 33 Sudeste 0 771 0.3 10
2019-01-22 19:00:00 2.8 25 Sudeste 37 Sudeste 0 770.8 0.1 12
2019-01-22 18:00:00 3.6 27 Sudeste 39 Sudeste 0 770.8 0.1 9
2019-01-22 17:00:00 5.1 24 Sudeste 35 Sudeste 0 770.7 -0.3 6
2019-01-22 16:00:00 5.7 29 Sudeste 46 Sudeste 0 770.7 -1.1 10
2019-01-22 15:00:00 5.3 35 Sudeste 53 Sudeste 0 770.7 -1.4 12
2019-01-22 14:00:00 5.4 34 Sudeste 51 Sudeste 0 771 -0.7 22
2019-01-22 13:00:00 5.9 30 Sudeste 46 Sudeste 0 771.8 0.5 17
2019-01-22 12:00:00 6.2 23 Sudeste 35 Sudeste 0 772.1 1.4 19
2019-01-22 11:00:00 5.5 23 Sudeste 36 Sudeste 0 771.7 1.4 14
2019-01-22 10:00:00 5.5 20 Sudeste 30 Sudeste 0 771.3 1.5 14
2019-01-22 09:00:00 3.3 14 Este 32 Este 0 770.7 1.4 16
2019-01-22 08:00:00 -0.7 15 Este 26 Nordeste 0 770.3 1.1 33
2019-01-22 07:00:00 -0.3 10 Nordeste 26 Nordeste 0 769.8 0.3 52
2019-01-22 06:00:00 0.5 12 Nordeste 31 Este 0 769.3 -0.4 20
2019-01-22 05:00:00 0.5 14 Nordeste 26 Nordeste 0 769.2 -0.7 24
2019-01-22 04:00:00 -1.5 12 Norte 29 Nordeste 0 769.5 -0.8 30
2019-01-22 03:00:00 -0.2 18 Nordeste 28 Este 0 769.7 -0.5 28
2019-01-22 02:00:00 -2.7 12 Norte 32 Nordeste 0 769.9 -0.4 90
2019-01-22 01:00:00 -0.6 19 Norte 38 Norte 0 770.3 0 100
2019-01-22 00:00:00 -1.1 27 Norte 38 Norte 0 770.2 0.1 100
2019-01-21 23:00:00 -2.3 22 Norte 33 Norte 0 770.3 0.7 97
2019-01-21 22:00:00 -1.7 20 Norte 41 Norte 0 770.3 0.7 99
2019-01-21 21:00:00 -2.2 27 Norte 50 Norte 0 770.1 0.5 99
2019-01-21 20:00:00 -2.1 32 Norte 48 Norte 0 769.6 0 98
2019-01-21 19:00:00 -0.9 33 Norte 47 Norte 0 769.6 -0.5 77
2019-01-21 18:00:00 -0.3 32 Norte 48 Norte 0 769.6 -0.3 89
2019-01-21 17:00:00 2.4 25 Norte 52 Norte 0 769.6 -0.9 46
2019-01-21 16:00:00 1.6 20 Norte 36 Norte 0 770.1 -0.9 74
2019-01-21 15:00:00 1.3 25 Noroeste 41 Norte 0 769.9 -1.5 92
2019-01-21 14:00:00 3.6 24 Norte 35 Norte 0 770.5 -0.8 66
2019-01-21 13:00:00 4.6 23 Norte 39 Norte 0 771 0.2 36
2019-01-21 12:00:00 2.9 28 Norte 42 Norte 0 771.4 0.9 58
2019-01-21 11:00:00 0.7 31 Norte 47 Norte 0 771.3 1.1 80
2019-01-21 10:00:00 -0.1 36 Norte 50 Norte 0 770.8 1.3 87
2019-01-21 09:00:00 -0.6 35 Norte 46 Noroeste 0 770.5 0.5 100
2019-01-21 08:00:00 0.2 42 Noroeste 57 Noroeste 0 770.2 -0.3 100
2019-01-21 07:00:00 0.3 48 Noroeste 55 Norte 0 769.5 -1 100
2019-01-21 06:00:00 0.9 24 Noroeste 45 Norte 0 770 -0.3 57
2019-01-21 05:00:00 0.1 32 Noroeste 45 Noroeste 0 770.5 -0.2 75
2019-01-21 04:00:00 -0.6 35 Noroeste 45 Noroeste 0 770.5 -0.6 43
2019-01-21 03:00:00 -1 41 Noroeste 46 Noroeste 0 770.3 -1 55
2019-01-21 02:00:00 -0.6 45 Noroeste 53 Noroeste 0 770.7 -0.7 57
2019-01-21 01:00:00 1.3 42 Noroeste 53 Noroeste 0 771.1 -0.5 100
2019-01-21 00:00:00 2 45 Noroeste 53 Noroeste 0 771.3 -0.5 100
2019-01-20 23:00:00 2.5 45 Noroeste 51 Noroeste 0 771.4 -0.3 100
2019-01-20 22:00:00 2.4 44 Noroeste 48 Noroeste 0 771.6 0.1 100
2019-01-20 21:00:00 1.8 40 Noroeste 49 Noroeste 0 771.8 0.1 100
2019-01-20 20:00:00 1.3 42 Noroeste 46 Noroeste 0 771.7 0.3 100
2019-01-20 19:00:00 1 38 Noroeste 42 Noroeste 0 771.5 -0.2 98
2019-01-20 18:00:00 2 31 Noroeste 41 Noroeste 0 771.7 -0.1 88
2019-01-20 17:00:00 2.1 36 Noroeste 41 Noroeste 0 771.4 -1.3 96
2019-01-20 16:00:00 3.3 29 Noroeste 43 Noroeste 0 771.7 -1.9 88
2019-01-20 15:00:00 5.3 31 Noroeste 41 Noroeste 0 771.8 -2.3 66
2019-01-20 14:00:00 6.3 24 Norte 36 Nordeste 0 772.7 -1.4 37
2019-01-20 13:00:00 6.6 21 Norte 34 Norte 0 773.6 0.7 25
2019-01-20 12:00:00 6.2 17 Norte 32 Nordeste 0 774.1 1.5 31
2019-01-20 11:00:00 5.4 23 Norte 48 Norte 0 774.1 1.5 27
2019-01-20 10:00:00 2.7 38 Noroeste 40 Noroeste 0 772.9 0.8 44
2019-01-20 09:00:00 2.3 36 Noroeste 41 Noroeste 0 772.6 0.5 42
2019-01-20 08:00:00 2 30 Noroeste 34 Noroeste 0 772.6 -0.1 40
2019-01-20 07:00:00 1.9 33 Noroeste 40 Noroeste 0 772.1 -1 39
2019-01-20 06:00:00 2.2 32 Noroeste 37 Noroeste 0 772.1 -1.3 38
2019-01-20 05:00:00 2.3 22 Noroeste 28 Norte 0 772.7 -1 36
2019-01-20 04:00:00 2.4 16 Noroeste 22 Norte 0 773.1 -0.9 38
2019-01-20 03:00:00 2.3 17 Norte 21 Norte 0 773.4 -0.7 38
2019-01-20 02:00:00 2.5 17 Norte 30 Norte 0 773.7 -0.4 40
2019-01-20 01:00:00 2.9 18 Noroeste 30 Norte 0 774 0 37
2019-01-20 00:00:00 3.8 20 Noroeste 30 Norte 0 774.1 0.4 20
2019-01-19 23:00:00 3.7 20 Noroeste 27 Norte 0 774.1 0.4 20
2019-01-19 22:00:00 3.2 25 Noroeste 38 Norte 0 774 0.7 24
2019-01-19 21:00:00 4.5 31 Norte 43 Norte 0 773.7 0.7 25
2019-01-19 20:00:00 4.5 27 Norte 36 Norte 0 773.7 0.7 21
2019-01-19 19:00:00 4.4 27 Norte 31 Norte 0 773.3 0.2 36
2019-01-19 18:00:00 5.7 22 Norte 30 Norte 0 773 -0.1 40
2019-01-19 17:00:00 6.7 19 Norte 28 Norte 0 773 -0.5 46
2019-01-19 16:00:00 7.6 18 Norte 31 Norte 0 773.1 -0.9 51
2019-01-19 15:00:00 7.7 19 Norte 28 Norte 0 773.1 -1.4 46
2019-01-19 14:00:00 8 12 Norte 27 Nordeste 0 773.5 -0.9 48
2019-01-19 13:00:00 7.7 18 Nordeste 33 Nordeste 0 774 0.1 50
2019-01-19 12:00:00 6.9 17 Nordeste 33 Nordeste 0 774.5 1.5 47
2019-01-19 11:00:00 6.3 20 Nordeste 40 Nordeste 0 774.4 1.8 43
2019-01-19 10:00:00 5 23 Nordeste 41 Nordeste 0 773.9 1.9 32
2019-01-19 09:00:00 3.2 30 Nordeste 45 Nordeste 0 773 1.1 65
2019-01-19 08:00:00 2.7 38 Nordeste 45 Nordeste 0 772.6 0.8 63
2019-01-19 07:00:00 3.2 35 Nordeste 44 Nordeste 0 772 0.1 59
2019-01-19 06:00:00 3.5 23 Nordeste 41 Nordeste 0 771.9 -0.2 56
2019-01-19 05:00:00 3.4 25 Nordeste 41 Nordeste 0 771.8 -0.4 59
2019-01-19 04:00:00 3.1 24 Nordeste 41 Nordeste 0 771.9 -0.6 61
2019-01-19 03:00:00 2.5 26 Nordeste 44 Nordeste 0 772.1 -0.2 65
2019-01-19 02:00:00 2.2 32 Nordeste 44 Nordeste 0 772.2 0.1 61
2019-01-19 01:00:00 2.1 26 Nordeste 41 Nordeste 0 772.5 0.7 63
2019-01-19 00:00:00 2.4 29 Nordeste 50 Nordeste 0 772.3 1.2 60